createdAt,value
2022-11-14T00:00:48.399Z,5.77
2022-11-14T00:03:36.813Z,5.90
2022-11-14T00:06:23.282Z,6.30
2022-11-14T00:09:10.097Z,5.20
2022-11-14T00:11:57.058Z,7.23
2022-11-14T00:14:43.885Z,6.07
2022-11-14T00:17:32.883Z,5.90
2022-11-14T00:20:20.950Z,5.77
2022-11-14T00:23:07.619Z,6.63
2022-11-14T00:25:54.570Z,6.10
2022-11-14T00:28:40.947Z,5.73
2022-11-14T00:31:27.184Z,6.97
2022-11-14T00:34:14.441Z,7.10
2022-11-14T00:37:02.247Z,5.90
2022-11-14T00:39:48.897Z,7.10
2022-11-14T00:42:35.713Z,5.37
2022-11-14T00:45:22.780Z,7.37
2022-11-14T00:48:09.275Z,6.43
2022-11-14T00:52:20.473Z,6.30
2022-11-14T00:55:08.360Z,6.63
2022-11-14T00:57:54.682Z,6.60
2022-11-14T01:00:41.488Z,6.17
2022-11-14T01:03:28.373Z,7.43
2022-11-14T01:06:15.953Z,8.17
2022-11-14T01:09:03.753Z,6.55
2022-11-14T01:11:50.842Z,6.03
2022-11-14T01:14:38.358Z,8.10
2022-11-14T01:17:28.670Z,7.38
2022-11-14T01:20:16.011Z,6.87
2022-11-14T01:23:05.124Z,7.07
2022-11-14T01:25:52.898Z,7.47
2022-11-14T01:28:40.918Z,7.18
2022-11-14T01:31:27.788Z,5.68
2022-11-14T01:34:14.215Z,7.00
2022-11-14T01:37:01.480Z,6.93
2022-11-14T01:39:48.074Z,8.40
2022-11-14T01:42:36.041Z,8.38
2022-11-14T01:45:51.613Z,8.55
2022-11-14T01:48:42.759Z,9.30
2022-11-14T01:51:33.378Z,7.80
2022-11-14T01:54:26.812Z,8.13
2022-11-14T01:57:17.068Z,7.90
2022-11-14T02:00:09.388Z,7.45
2022-11-14T02:02:57.781Z,8.02
2022-11-14T02:05:47.183Z,8.32
2022-11-14T02:08:34.326Z,7.68
2022-11-14T02:11:25.874Z,7.43
2022-11-14T02:14:16.417Z,8.40
2022-11-14T02:17:28.541Z,6.13
2022-11-14T02:20:28.361Z,7.43
2022-11-14T02:23:17.273Z,6.65
2022-11-14T02:26:06.131Z,6.82
2022-11-14T02:28:53.083Z,7.53
2022-11-14T02:31:39.879Z,6.78
2022-11-14T02:34:27.007Z,8.23
2022-11-14T02:37:14.660Z,6.38
2022-11-14T02:40:03.834Z,6.30
2022-11-14T02:42:52.691Z,7.53
2022-11-14T02:45:39.344Z,6.28
2022-11-14T02:48:25.770Z,8.20
2022-11-14T02:51:12.824Z,5.70
2022-11-14T02:54:00.874Z,6.38
2022-11-14T02:56:47.460Z,6.88
2022-11-14T02:59:33.953Z,6.40
2022-11-14T03:02:20.721Z,7.68
2022-11-14T03:05:07.996Z,6.20
2022-11-14T03:07:55.405Z,7.20
2022-11-14T03:10:43.382Z,6.82
2022-11-14T03:13:30.580Z,5.85
2022-11-14T03:16:17.303Z,7.93
2022-11-14T03:19:04.035Z,7.82
2022-11-14T03:21:50.648Z,7.63
2022-11-14T03:24:37.313Z,7.45
2022-11-14T03:27:27.894Z,7.90
2022-11-14T03:30:15.528Z,5.88
2022-11-14T03:33:02.436Z,6.72
2022-11-14T03:35:50.641Z,6.97
2022-11-14T03:38:37.285Z,7.47
2022-11-14T03:41:24.071Z,6.97
2022-11-14T03:44:11.924Z,6.25
2022-11-14T03:46:58.443Z,6.15
2022-11-14T03:49:45.712Z,8.27
2022-11-14T03:52:32.015Z,6.47
2022-11-14T03:55:18.839Z,7.05
2022-11-14T03:58:05.238Z,7.60
2022-11-14T04:00:53.455Z,5.80
2022-11-14T04:03:39.977Z,7.13
2022-11-14T04:06:26.751Z,6.40
2022-11-14T04:09:13.053Z,7.18
2022-11-14T04:11:59.935Z,6.13
2022-11-14T04:14:46.302Z,5.10
2022-11-14T04:17:39.469Z,7.30
2022-11-14T04:20:27.427Z,6.32
2022-11-14T04:23:14.189Z,7.07
2022-11-14T04:26:00.600Z,6.15
2022-11-14T04:28:47.315Z,4.45
2022-11-14T04:31:33.914Z,6.07
2022-11-14T04:34:21.851Z,6.38
2022-11-14T04:37:08.571Z,6.53
2022-11-14T04:39:58.652Z,5.93
2022-11-14T04:42:44.933Z,6.13
2022-11-14T04:45:31.683Z,4.30
2022-11-14T04:48:18.722Z,5.68
2022-11-14T04:51:06.960Z,7.00
2022-11-14T04:53:53.830Z,5.60
2022-11-14T04:56:40.083Z,6.63
2022-11-14T04:59:27.148Z,6.30
2022-11-14T05:02:13.483Z,5.70
2022-11-14T05:04:59.975Z,6.10
2022-11-14T05:07:48.417Z,5.10
2022-11-14T05:10:34.864Z,6.03
2022-11-14T05:13:21.751Z,6.00
2022-11-14T05:16:08.607Z,5.55
2022-11-14T05:18:55.571Z,6.28
2022-11-14T05:21:42.235Z,5.68
2022-11-14T05:24:30.514Z,5.78
2022-11-14T05:27:17.018Z,4.78
2022-11-14T05:30:03.692Z,4.55
2022-11-14T05:32:52.751Z,4.72
2022-11-14T05:35:39.569Z,5.00
2022-11-14T05:38:29.199Z,4.90
2022-11-14T05:41:20.057Z,4.60
2022-11-14T05:44:07.342Z,4.65
2022-11-14T05:46:54.079Z,3.97
2022-11-14T05:49:41.458Z,4.15
2022-11-14T05:53:20.119Z,4.82
2022-11-14T05:56:08.417Z,4.22
2022-11-14T05:58:54.768Z,5.30
2022-11-14T06:01:41.577Z,5.47
2022-11-14T06:04:28.274Z,4.80
2022-11-14T06:07:19.687Z,5.15
2022-11-14T06:10:09.107Z,5.43
2022-11-14T06:12:56.549Z,5.70
2022-11-14T06:15:43.670Z,5.40
2022-11-14T06:18:31.859Z,6.03
2022-11-14T06:21:23.714Z,5.53
2022-11-14T06:24:10.178Z,6.07
2022-11-14T06:26:58.218Z,6.55
2022-11-14T06:29:44.581Z,6.43
2022-11-14T06:32:31.439Z,6.00
2022-11-14T06:35:17.714Z,7.38
2022-11-14T06:38:04.544Z,5.15
2022-11-14T06:40:51.258Z,6.43
2022-11-14T06:43:40.892Z,6.50
2022-11-14T06:46:27.334Z,6.90
2022-11-14T06:49:14.317Z,4.90
2022-11-14T06:52:00.424Z,6.72
2022-11-14T06:54:47.153Z,6.10
2022-11-14T06:57:33.866Z,4.45
2022-11-14T07:00:22.496Z,4.82
2022-11-14T07:03:08.816Z,5.65
2022-11-14T07:05:58.699Z,4.97
2022-11-14T07:08:45.935Z,5.78
2022-11-14T07:11:33.247Z,5.93
2022-11-14T07:14:19.913Z,4.78
2022-11-14T07:17:07.829Z,5.55
2022-11-14T07:19:54.320Z,5.75
2022-11-14T07:22:40.848Z,6.70
2022-11-14T07:25:28.230Z,6.50
2022-11-14T07:28:14.767Z,6.47
2022-11-14T07:31:03.897Z,7.47
2022-11-14T07:33:54.531Z,8.20
2022-11-14T07:36:41.356Z,7.18
2022-11-14T07:39:28.254Z,7.63
2022-11-14T07:42:14.852Z,6.32
2022-11-14T07:45:01.340Z,5.15
2022-11-14T07:47:48.081Z,4.60
2022-11-14T07:50:35.854Z,5.32
2022-11-14T07:53:22.939Z,5.75
2022-11-14T07:56:10.631Z,4.18
2022-11-14T07:58:58.854Z,5.60
2022-11-14T08:01:47.100Z,5.65
2022-11-14T08:04:38.862Z,5.80
2022-11-14T08:07:32.830Z,4.78
2022-11-14T08:10:22.706Z,4.95
2022-11-14T08:16:21.247Z,5.60
2022-11-14T08:19:07.870Z,5.40
2022-11-14T08:21:54.374Z,5.75
2022-11-14T08:24:42.338Z,5.40
2022-11-14T08:27:31.922Z,4.88
2022-11-14T08:30:21.447Z,4.43
2022-11-14T08:33:09.278Z,5.10
2022-11-14T08:35:55.556Z,4.88
2022-11-14T08:38:44.764Z,5.05
2022-11-14T08:41:35.974Z,4.90
2022-11-14T08:44:25.948Z,4.45
2022-11-14T08:47:15.284Z,5.75
2022-11-14T08:50:05.429Z,4.60
2022-11-14T08:52:52.958Z,4.55
2022-11-14T08:55:44.987Z,5.70
2022-11-14T08:58:33.851Z,4.68
2022-11-14T09:01:20.439Z,3.97
2022-11-14T09:04:06.908Z,3.95
2022-11-14T09:06:53.463Z,3.55
2022-11-14T09:09:40.788Z,3.10
2022-11-14T09:12:27.461Z,3.35
2022-11-14T09:15:15.623Z,3.60
2022-11-14T09:18:01.837Z,3.10
2022-11-14T09:20:48.521Z,3.78
2022-11-14T09:23:35.625Z,4.15
2022-11-14T09:26:22.562Z,4.85
2022-11-14T09:29:09.838Z,4.20
2022-11-14T09:31:59.227Z,3.92
2022-11-14T09:34:46.181Z,4.00
2022-11-14T09:37:32.575Z,3.70
2022-11-14T09:40:19.845Z,3.97
2022-11-14T09:43:31.154Z,3.58
2022-11-14T09:46:24.072Z,3.72
2022-11-14T09:49:21.532Z,3.57
2022-11-14T09:52:17.167Z,3.65
2022-11-14T09:55:12.603Z,3.80
2022-11-14T09:57:59.580Z,2.70
2022-11-14T10:00:56.160Z,3.88
2022-11-14T10:03:53.539Z,4.28
2022-11-14T10:06:55.267Z,2.55
2022-11-14T10:09:59.514Z,3.20
2022-11-14T10:12:58.269Z,3.40
2022-11-14T10:15:53.213Z,3.78
2022-11-14T10:19:04.305Z,3.45
2022-11-14T10:22:05.812Z,3.78
2022-11-14T10:25:20.771Z,2.90
2022-11-14T10:28:28.955Z,4.07
2022-11-14T10:31:25.096Z,3.20
2022-11-14T10:34:26.528Z,2.53
2022-11-14T10:37:23.659Z,2.50
2022-11-14T10:40:18.927Z,2.70
2022-11-14T10:43:26.642Z,1.77
2022-11-14T10:46:27.264Z,2.22
2022-11-14T10:49:18.923Z,1.95
2022-11-14T10:54:25.823Z,2.28
2022-11-14T10:57:17.782Z,2.40
2022-11-14T11:00:12.295Z,3.25
2022-11-14T11:02:59.544Z,2.63
2022-11-14T11:05:48.944Z,2.10
2022-11-14T11:09:00.375Z,2.55
2022-11-14T11:11:57.156Z,1.77
2022-11-14T11:14:44.340Z,1.88
2022-11-14T11:17:36.110Z,2.20
2022-11-14T11:20:31.992Z,2.20
2022-11-14T11:23:21.240Z,1.92
2022-11-14T11:26:17.080Z,2.33
2022-11-14T11:29:19.120Z,2.22
2022-11-14T11:32:06.131Z,2.30
2022-11-14T11:34:53.416Z,2.83
2022-11-14T11:37:45.399Z,2.10
2022-11-14T11:40:34.659Z,2.35
2022-11-14T11:43:52.505Z,2.13
2022-11-14T11:46:48.310Z,2.75
2022-11-14T11:49:41.443Z,2.47
2022-11-14T11:52:34.921Z,2.50
2022-11-14T11:55:25.470Z,2.95
2022-11-14T11:58:20.759Z,3.22
2022-11-14T12:01:10.764Z,3.05
2022-11-14T12:03:59.370Z,2.72
2022-11-14T12:06:50.830Z,2.55
2022-11-14T12:10:09.220Z,3.20
2022-11-14T12:13:24.339Z,2.75
2022-11-14T12:16:26.021Z,2.47
2022-11-14T12:19:40.532Z,2.30
2022-11-14T12:22:44.816Z,2.33
2022-11-14T12:25:48.719Z,3.25
2022-11-14T12:29:00.928Z,2.40
2022-11-14T12:31:48.846Z,2.63
2022-11-14T12:34:42.015Z,3.15
2022-11-14T12:37:35.582Z,2.33
2022-11-14T12:40:27.405Z,3.20
2022-11-14T12:43:36.064Z,2.92
2022-11-14T12:46:23.626Z,2.33
2022-11-14T12:49:39.220Z,3.00
2022-11-14T12:52:53.516Z,2.17
2022-11-14T12:56:05.718Z,2.58
2022-11-14T12:59:14.524Z,2.10
2022-11-14T13:02:22.773Z,3.00
2022-11-14T13:05:46.649Z,3.30
2022-11-14T13:09:06.918Z,3.75
2022-11-14T13:12:11.878Z,2.35
2022-11-14T13:15:36.555Z,3.15
2022-11-14T13:21:47.952Z,3.15
2022-11-14T13:25:16.803Z,2.45
2022-11-14T13:28:36.939Z,2.65
2022-11-14T13:31:25.842Z,3.28
2022-11-14T13:34:37.254Z,2.42
2022-11-14T13:37:53.215Z,2.72
2022-11-14T13:40:45.877Z,2.38
2022-11-14T13:43:45.527Z,1.83
2022-11-14T13:47:09.232Z,2.50
2022-11-14T13:50:03.330Z,2.58
2022-11-14T13:52:53.923Z,2.38
2022-11-14T13:55:55.305Z,1.75
2022-11-14T13:59:35.612Z,1.65
2022-11-14T14:02:45.466Z,1.98
2022-11-14T14:05:42.241Z,2.10
2022-11-14T14:08:50.051Z,1.88
2022-11-14T14:11:52.045Z,1.58
2022-11-14T14:15:01.995Z,1.55
2022-11-14T14:18:00.153Z,2.13
2022-11-14T14:20:50.838Z,2.20
2022-11-14T14:23:46.829Z,3.10
2022-11-14T14:26:47.731Z,2.30
2022-11-14T14:29:46.780Z,1.95
2022-11-14T14:32:34.314Z,3.50
2022-11-14T14:35:23.129Z,3.63
2022-11-14T14:38:14.392Z,2.13
2022-11-14T14:41:02.173Z,2.17
2022-11-14T14:43:55.583Z,2.05
2022-11-14T14:46:42.023Z,2.55
2022-11-14T14:49:33.075Z,1.88
2022-11-14T14:52:29.227Z,2.38
2022-11-14T14:55:24.906Z,3.40
2022-11-14T14:58:22.072Z,2.28
2022-11-14T15:01:13.297Z,2.70
2022-11-14T15:04:03.991Z,2.03
2022-11-14T15:06:55.896Z,1.90
2022-11-14T15:09:53.121Z,2.45
2022-11-14T15:12:42.380Z,2.55
2022-11-14T15:15:34.631Z,2.67
2022-11-14T15:18:32.025Z,2.58
2022-11-14T15:21:28.798Z,2.25
2022-11-14T15:24:18.640Z,3.10
2022-11-14T15:27:06.584Z,2.30
2022-11-14T15:29:55.000Z,3.15
2022-11-14T15:32:50.518Z,2.88
2022-11-14T15:35:38.791Z,6.32
2022-11-14T15:41:35.242Z,2.53
2022-11-14T15:44:31.752Z,2.80
2022-11-14T15:47:24.168Z,3.42
2022-11-14T15:50:29.922Z,2.50
2022-11-14T15:55:22.818Z,1.73
2022-11-14T16:01:23.613Z,2.38
2022-11-14T16:04:14.837Z,2.20
2022-11-14T16:07:01.722Z,2.28
2022-11-14T16:09:48.469Z,2.78
2022-11-14T16:12:36.918Z,2.33
2022-11-14T16:15:23.741Z,2.55
2022-11-14T16:18:12.833Z,2.08
2022-11-14T16:21:00.366Z,2.85
2022-11-14T16:23:47.285Z,2.38
2022-11-14T16:26:34.449Z,2.40
2022-11-14T16:29:23.120Z,2.38
2022-11-14T16:32:11.413Z,2.75
2022-11-14T16:34:58.032Z,2.08
2022-11-14T16:37:45.071Z,2.25
2022-11-14T16:40:31.500Z,2.55
2022-11-14T16:43:18.250Z,3.17
2022-11-14T16:46:07.752Z,2.03
2022-11-14T16:48:55.667Z,2.88
2022-11-14T16:51:50.817Z,3.13
2022-11-14T16:54:37.824Z,2.85
2022-11-14T16:57:24.691Z,2.50
2022-11-14T17:00:13.827Z,2.30
2022-11-14T17:03:01.645Z,1.90
2022-11-14T17:05:50.204Z,3.10
2022-11-14T17:08:36.481Z,2.20
2022-11-14T17:11:23.417Z,2.80
2022-11-14T17:14:12.536Z,3.05
2022-11-14T17:17:02.341Z,2.35
2022-11-14T17:19:50.279Z,2.10
2022-11-14T17:22:37.060Z,2.38
2022-11-14T17:25:24.278Z,2.63
2022-11-14T17:28:10.608Z,2.88
2022-11-14T17:30:59.315Z,3.47
2022-11-14T17:33:51.957Z,3.63
2022-11-14T17:36:39.865Z,2.63
2022-11-14T17:39:26.694Z,2.40
2022-11-14T17:42:13.037Z,3.10
2022-11-14T17:45:00.885Z,2.60
2022-11-14T17:47:47.191Z,3.20
2022-11-14T17:50:37.642Z,3.15
2022-11-14T17:53:28.130Z,3.13
2022-11-14T17:56:17.278Z,2.70
2022-11-14T17:59:03.888Z,3.95
2022-11-14T18:01:50.637Z,3.83
2022-11-14T18:04:36.964Z,3.40
2022-11-14T18:07:23.920Z,3.25
2022-11-14T18:10:12.292Z,3.28
2022-11-14T18:13:03.805Z,3.75
2022-11-14T18:15:52.745Z,3.20
2022-11-14T18:18:39.569Z,3.45
2022-11-14T18:21:26.934Z,3.17
2022-11-14T18:24:14.792Z,3.00
2022-11-14T18:27:02.615Z,2.13
2022-11-14T18:29:51.545Z,2.80
2022-11-14T18:32:38.925Z,2.60
2022-11-14T18:35:25.966Z,2.58
2022-11-14T18:38:12.699Z,3.30
2022-11-14T18:41:01.397Z,3.20
2022-11-14T18:43:55.519Z,2.40
2022-11-14T18:46:42.506Z,2.70
2022-11-14T18:49:29.060Z,2.88
2022-11-14T18:52:17.412Z,3.05
2022-11-14T18:55:05.535Z,2.58
2022-11-14T18:57:53.441Z,2.75
2022-11-14T19:00:41.331Z,2.35
2022-11-14T19:03:29.083Z,2.30
2022-11-14T19:06:15.982Z,2.53
2022-11-14T19:09:09.742Z,2.72
2022-11-14T19:12:16.095Z,2.88
2022-11-14T19:15:02.967Z,5.10
2022-11-14T19:17:50.692Z,4.38
2022-11-14T19:20:37.231Z,3.10
2022-11-14T19:23:24.381Z,2.63
2022-11-14T19:26:11.457Z,2.60
2022-11-14T19:28:58.614Z,3.53
2022-11-14T19:31:45.017Z,2.65
2022-11-14T19:34:33.416Z,2.58
2022-11-14T19:37:19.898Z,2.72
2022-11-14T19:40:10.329Z,2.78
2022-11-14T19:43:01.730Z,3.25
2022-11-14T19:45:49.043Z,3.53
2022-11-14T19:48:36.364Z,3.08
2022-11-14T19:51:24.552Z,2.38
2022-11-14T19:54:13.800Z,2.88
2022-11-14T19:57:00.470Z,3.35
2022-11-14T19:59:47.307Z,3.10
2022-11-14T20:02:34.035Z,2.45
2022-11-14T20:05:20.911Z,2.13
2022-11-14T20:08:09.033Z,2.78
2022-11-14T20:10:57.364Z,2.33
2022-11-14T20:13:44.662Z,2.42
2022-11-14T20:16:34.633Z,2.45
2022-11-14T20:19:21.858Z,2.38
2022-11-14T20:22:08.791Z,2.78
2022-11-14T20:24:59.554Z,2.42
2022-11-14T20:27:46.674Z,2.78
2022-11-14T20:30:39.097Z,2.85
2022-11-14T20:33:26.006Z,2.38
2022-11-14T20:36:14.344Z,2.17
2022-11-14T20:39:01.466Z,1.95
2022-11-14T20:41:49.639Z,2.08
2022-11-14T20:44:36.736Z,2.92
2022-11-14T20:47:23.357Z,2.33
2022-11-14T20:50:13.632Z,2.72
2022-11-14T20:56:25.476Z,3.88
2022-11-14T20:59:12.151Z,3.03
2022-11-14T21:02:01.380Z,2.55
2022-11-14T21:04:48.306Z,3.05
2022-11-14T21:07:35.065Z,2.60
2022-11-14T21:10:39.732Z,2.60
2022-11-14T21:13:45.424Z,2.17
2022-11-14T21:16:33.822Z,1.92
2022-11-14T21:19:20.945Z,2.58
2022-11-14T21:22:07.328Z,2.85
2022-11-14T21:24:53.791Z,3.22
2022-11-14T21:27:40.162Z,1.77
2022-11-14T21:30:28.394Z,2.20
2022-11-14T21:33:14.699Z,2.25
2022-11-14T21:36:16.679Z,2.15
2022-11-14T21:39:08.146Z,2.38
2022-11-14T21:41:55.289Z,2.58
2022-11-14T21:44:41.793Z,2.83
2022-11-14T21:47:29.844Z,2.45
2022-11-14T21:50:16.819Z,2.03
2022-11-14T21:53:03.808Z,2.65
2022-11-14T21:55:52.727Z,2.10
2022-11-14T21:58:39.733Z,2.38
2022-11-14T22:01:40.010Z,3.03
2022-11-14T22:04:28.368Z,2.67
2022-11-14T22:07:14.827Z,2.63
2022-11-14T22:10:01.660Z,2.15
2022-11-14T22:12:48.266Z,2.78
2022-11-14T22:15:37.535Z,1.45
2022-11-14T22:18:23.916Z,2.78
2022-11-14T22:21:12.400Z,2.13
2022-11-14T22:24:03.603Z,2.63
2022-11-14T22:26:50.425Z,2.40
2022-11-14T22:29:36.757Z,2.17
2022-11-14T22:32:23.731Z,2.42
2022-11-14T22:35:10.210Z,2.30
2022-11-14T22:37:58.529Z,2.65
2022-11-14T22:40:45.003Z,2.35
2022-11-14T22:43:33.407Z,2.40
2022-11-14T22:46:22.838Z,3.17
2022-11-14T22:49:09.359Z,2.20
2022-11-14T22:51:55.998Z,2.83
2022-11-14T22:54:43.840Z,2.10
2022-11-14T22:57:33.016Z,2.40
2022-11-14T23:00:20.515Z,2.03
2022-11-14T23:03:07.034Z,2.20
2022-11-14T23:05:53.933Z,1.95
2022-11-14T23:08:40.775Z,2.47
2022-11-14T23:11:31.517Z,2.47
2022-11-14T23:14:20.403Z,1.90
2022-11-14T23:17:07.041Z,1.70
2022-11-14T23:19:53.649Z,2.17
2022-11-14T23:22:41.042Z,1.88
2022-11-14T23:25:28.011Z,1.90
2022-11-14T23:28:16.510Z,1.92
2022-11-14T23:31:03.478Z,2.83
2022-11-14T23:33:51.777Z,1.63
2022-11-14T23:36:38.105Z,2.00
2022-11-14T23:39:24.709Z,1.50
2022-11-14T23:42:13.567Z,1.73
2022-11-14T23:45:03.378Z,2.08
2022-11-14T23:47:50.101Z,1.40
2022-11-14T23:50:36.645Z,1.98
2022-11-14T23:53:23.611Z,1.75
2022-11-14T23:56:12.635Z,1.70
2022-11-14T23:58:59.527Z,1.42
